createdAt,value
2023-05-14T00:02:21.108Z,64.74
2023-05-14T00:04:47.708Z,64.16
2023-05-14T00:07:17.319Z,64.79
2023-05-14T00:09:43.905Z,64.48
2023-05-14T00:12:10.487Z,63.86
2023-05-14T00:14:37.082Z,63.89
2023-05-14T00:17:03.711Z,64.78
2023-05-14T00:19:30.370Z,64.88
2023-05-14T00:21:56.926Z,64.45
2023-05-14T00:24:23.744Z,64.95
2023-05-14T00:26:50.359Z,66.05
2023-05-14T00:29:17.024Z,64.37
2023-05-14T00:31:43.750Z,64.35
2023-05-14T00:34:12.714Z,65.18
2023-05-14T00:36:39.317Z,64.24
2023-05-14T00:39:05.985Z,67.58
2023-05-14T00:41:33.086Z,64.91
2023-05-14T00:43:59.723Z,67.01
2023-05-14T00:46:27.660Z,65.56
2023-05-14T00:48:54.301Z,66.65
2023-05-14T00:51:21.094Z,66.36
2023-05-14T00:53:48.287Z,66.20
2023-05-14T00:56:15.962Z,67.21
2023-05-14T00:58:42.592Z,66.84
2023-05-14T01:01:09.358Z,65.74
2023-05-14T01:03:36.164Z,65.04
2023-05-14T01:06:18.156Z,66.80
2023-05-14T01:08:59.618Z,67.51
2023-05-14T01:11:29.594Z,67.38
2023-05-14T01:14:07.515Z,66.79
2023-05-14T01:16:35.175Z,65.28
2023-05-14T01:19:06.791Z,64.77
2023-05-14T01:21:40.177Z,67.64
2023-05-14T01:24:07.672Z,67.77
2023-05-14T01:26:34.994Z,67.60
2023-05-14T01:29:22.009Z,67.19
2023-05-14T01:31:57.744Z,68.90
2023-05-14T01:34:26.292Z,67.90
2023-05-14T01:36:53.504Z,65.62
2023-05-14T01:39:20.656Z,66.13
2023-05-14T01:41:48.739Z,65.23
2023-05-14T01:44:15.528Z,66.29
2023-05-14T01:46:42.156Z,66.43
2023-05-14T01:49:11.825Z,65.96
2023-05-14T01:51:39.081Z,66.17
2023-05-14T01:54:05.900Z,65.59
2023-05-14T01:56:32.499Z,67.48
2023-05-14T01:58:59.102Z,68.73
2023-05-14T02:01:26.285Z,68.89
2023-05-14T02:03:57.152Z,67.63
2023-05-14T02:06:23.905Z,68.01
2023-05-14T02:08:50.666Z,68.81
2023-05-14T02:11:17.448Z,67.98
2023-05-14T02:13:44.178Z,67.48
2023-05-14T02:16:10.941Z,67.50
2023-05-14T02:18:43.678Z,68.46
2023-05-14T02:21:10.681Z,70.12
2023-05-14T02:23:41.552Z,68.99
2023-05-14T02:26:09.804Z,70.09
2023-05-14T02:28:36.478Z,68.71
2023-05-14T02:31:04.080Z,69.05
2023-05-14T02:33:30.850Z,68.09
2023-05-14T02:35:57.547Z,67.62
2023-05-14T02:38:24.161Z,66.77
2023-05-14T02:40:50.877Z,67.45
2023-05-14T02:43:17.421Z,67.88
2023-05-14T02:45:45.009Z,68.06
2023-05-14T02:48:14.684Z,68.07
2023-05-14T02:50:41.646Z,69.16
2023-05-14T02:53:08.766Z,68.50
2023-05-14T02:55:35.704Z,69.16
2023-05-14T02:58:02.397Z,68.93
2023-05-14T03:00:30.051Z,68.24
2023-05-14T03:05:40.380Z,67.41
2023-05-14T03:08:06.908Z,68.64
2023-05-14T03:10:33.480Z,69.26
2023-05-14T03:13:00.129Z,69.55
2023-05-14T03:15:26.708Z,69.94
2023-05-14T03:17:53.351Z,69.99
2023-05-14T03:20:20.564Z,68.55
2023-05-14T03:22:47.196Z,68.42
2023-05-14T03:25:14.075Z,69.00
2023-05-14T03:27:42.836Z,71.43
2023-05-14T03:30:09.701Z,71.77
2023-05-14T03:32:37.565Z,72.28
2023-05-14T03:35:04.476Z,71.77
2023-05-14T03:37:35.401Z,70.13
2023-05-14T03:40:01.996Z,69.13
2023-05-14T03:42:28.662Z,70.36
2023-05-14T03:44:55.282Z,71.52
2023-05-14T03:47:21.999Z,72.50
2023-05-14T03:49:48.867Z,72.77
2023-05-14T03:52:16.851Z,71.68
2023-05-14T03:54:44.580Z,70.29
2023-05-14T03:57:13.435Z,70.67
2023-05-14T03:59:40.762Z,70.88
2023-05-14T04:02:07.466Z,70.80
2023-05-14T04:04:41.612Z,70.92
2023-05-14T04:07:08.932Z,68.60
2023-05-14T04:09:35.630Z,67.75
2023-05-14T04:12:05.530Z,67.22
2023-05-14T04:14:33.714Z,67.00
2023-05-14T04:17:03.823Z,67.31
2023-05-14T04:19:30.457Z,67.99
2023-05-14T04:21:59.553Z,67.87
2023-05-14T04:24:26.232Z,67.92
2023-05-14T04:26:52.768Z,67.52
2023-05-14T04:29:19.381Z,68.70
2023-05-14T04:31:46.521Z,67.70
2023-05-14T04:34:13.192Z,68.02
2023-05-14T04:36:40.265Z,70.44
2023-05-14T04:39:10.031Z,71.60
2023-05-14T04:41:36.833Z,70.89
2023-05-14T04:44:04.254Z,68.67
2023-05-14T04:46:31.191Z,68.53
2023-05-14T04:48:57.812Z,67.80
2023-05-14T04:51:31.641Z,69.40
2023-05-14T04:53:58.412Z,67.48
2023-05-14T04:56:25.934Z,67.13
2023-05-14T04:58:52.525Z,66.86
2023-05-14T05:01:19.143Z,67.58
2023-05-14T05:03:45.952Z,67.55
2023-05-14T05:06:14.870Z,66.62
2023-05-14T05:08:41.629Z,67.40
2023-05-14T05:11:08.181Z,68.14
2023-05-14T05:13:36.900Z,66.74
2023-05-14T05:16:03.730Z,68.05
2023-05-14T05:18:30.330Z,68.00
2023-05-14T05:20:57.769Z,68.57
2023-05-14T05:23:24.355Z,67.29
2023-05-14T05:25:58.493Z,67.80
2023-05-14T05:28:28.131Z,68.48
2023-05-14T05:30:54.695Z,67.14
2023-05-14T05:33:21.365Z,68.05
2023-05-14T05:35:48.887Z,69.26
2023-05-14T05:38:18.371Z,68.79
2023-05-14T05:40:45.099Z,68.87
2023-05-14T05:43:13.914Z,68.00
2023-05-14T05:45:40.942Z,69.14
2023-05-14T05:48:07.817Z,69.59
2023-05-14T05:50:34.536Z,68.62
2023-05-14T05:53:01.171Z,69.37
2023-05-14T05:55:30.549Z,69.11
2023-05-14T05:57:57.267Z,68.52
2023-05-14T06:00:24.527Z,69.16
2023-05-14T06:02:52.888Z,67.30
2023-05-14T06:05:19.634Z,66.75
2023-05-14T06:07:46.302Z,65.34
2023-05-14T06:10:13.790Z,63.91
2023-05-14T06:12:40.583Z,63.10
2023-05-14T06:15:10.170Z,63.60
2023-05-14T06:17:36.792Z,65.47
2023-05-14T06:20:05.638Z,67.49
2023-05-14T06:22:32.293Z,66.61
2023-05-14T06:25:02.027Z,66.23
2023-05-14T06:27:30.999Z,63.08
2023-05-14T06:29:57.613Z,62.33
2023-05-14T06:32:24.375Z,61.68
2023-05-14T06:34:51.053Z,62.54
2023-05-14T06:37:20.242Z,63.54
2023-05-14T06:39:50.206Z,63.29
2023-05-14T06:42:17.180Z,60.92
2023-05-14T06:44:44.342Z,60.53
2023-05-14T06:47:10.982Z,61.94
2023-05-14T06:49:37.700Z,61.36
2023-05-14T06:52:04.775Z,61.20
2023-05-14T06:54:33.658Z,60.44
2023-05-14T06:57:00.391Z,57.50
2023-05-14T06:59:26.926Z,56.74
2023-05-14T07:01:56.111Z,56.09
2023-05-14T07:04:22.887Z,55.16
2023-05-14T07:06:49.632Z,56.10
2023-05-14T07:09:16.636Z,55.96
2023-05-14T07:11:43.507Z,55.65
2023-05-14T07:14:10.035Z,56.33
2023-05-14T07:16:36.995Z,54.37
2023-05-14T07:19:03.670Z,54.88
2023-05-14T07:21:30.391Z,53.73
2023-05-14T07:23:56.943Z,55.57
2023-05-14T07:26:24.590Z,56.47
2023-05-14T07:28:51.231Z,55.84
2023-05-14T07:31:24.011Z,56.11
2023-05-14T07:33:53.466Z,55.59
2023-05-14T07:36:20.047Z,55.04
2023-05-14T07:38:46.695Z,56.29
2023-05-14T07:41:13.671Z,54.95
2023-05-14T07:43:40.622Z,54.48
2023-05-14T07:46:07.175Z,54.28
2023-05-14T07:48:33.812Z,55.40
2023-05-14T07:51:00.471Z,53.24
2023-05-14T07:53:27.020Z,53.91
2023-05-14T07:55:54.610Z,52.05
2023-05-14T07:58:21.245Z,52.33
2023-05-14T08:00:47.843Z,52.94
2023-05-14T08:03:15.107Z,53.36
2023-05-14T08:05:41.815Z,52.52
2023-05-14T08:08:12.505Z,51.65
2023-05-14T08:10:41.575Z,48.97
2023-05-14T08:13:08.147Z,47.74
2023-05-14T08:15:34.829Z,47.71
2023-05-14T08:18:03.797Z,47.93
2023-05-14T08:20:31.165Z,47.76
2023-05-14T08:23:01.517Z,46.60
2023-05-14T08:25:28.173Z,47.54
2023-05-14T08:27:54.861Z,49.14
2023-05-14T08:30:22.764Z,47.58
2023-05-14T08:32:49.657Z,45.92
2023-05-14T08:35:16.812Z,46.13
2023-05-14T08:37:43.638Z,44.61
2023-05-14T08:40:10.681Z,47.53
2023-05-14T08:42:40.540Z,44.28
2023-05-14T08:45:11.988Z,43.34
2023-05-14T08:47:38.791Z,45.90
2023-05-14T08:50:06.536Z,45.29
2023-05-14T08:52:33.683Z,44.97
2023-05-14T08:55:04.844Z,44.88
2023-05-14T08:57:32.477Z,45.37
2023-05-14T08:59:59.051Z,43.52
2023-05-14T09:02:28.738Z,41.25
2023-05-14T09:04:56.663Z,41.39
2023-05-14T09:07:23.916Z,40.73
2023-05-14T09:09:51.390Z,42.26
2023-05-14T09:12:18.131Z,41.12
2023-05-14T09:14:45.377Z,42.86
2023-05-14T09:17:12.722Z,40.68
2023-05-14T09:19:40.475Z,40.07
2023-05-14T09:22:12.036Z,37.86
2023-05-14T09:24:39.061Z,38.55
2023-05-14T09:27:06.616Z,38.95
2023-05-14T09:29:33.942Z,39.20
2023-05-14T09:32:04.834Z,39.33
2023-05-14T09:34:32.586Z,38.95
2023-05-14T09:37:06.511Z,37.00
2023-05-14T09:39:33.752Z,38.13
2023-05-14T09:42:00.566Z,37.79
2023-05-14T09:44:27.497Z,37.58
2023-05-14T09:46:56.976Z,38.30
2023-05-14T09:49:25.503Z,37.62
2023-05-14T09:51:52.064Z,35.44
2023-05-14T09:54:18.733Z,37.17
2023-05-14T09:56:47.506Z,37.30
2023-05-14T09:59:14.281Z,34.79
2023-05-14T10:01:42.477Z,35.58
2023-05-14T10:04:09.988Z,34.78
2023-05-14T10:06:37.365Z,36.02
2023-05-14T10:09:05.742Z,37.05
2023-05-14T10:11:36.763Z,34.62
2023-05-14T10:14:07.506Z,34.68
2023-05-14T10:16:35.492Z,33.14
2023-05-14T10:19:06.517Z,36.06
2023-05-14T10:21:35.044Z,34.59
2023-05-14T10:24:02.133Z,35.31
2023-05-14T10:26:28.888Z,36.62
2023-05-14T10:28:56.255Z,35.92
2023-05-14T10:31:23.455Z,37.22
2023-05-14T10:33:50.879Z,36.98
2023-05-14T10:36:18.432Z,38.71
2023-05-14T10:38:44.986Z,37.88
2023-05-14T10:41:25.996Z,38.47
2023-05-14T10:43:52.575Z,40.04
2023-05-14T10:46:19.154Z,39.21
2023-05-14T10:48:47.264Z,38.89
2023-05-14T10:51:16.847Z,39.33
2023-05-14T10:53:44.007Z,40.40
2023-05-14T10:56:14.464Z,39.80
2023-05-14T10:58:44.843Z,39.84
2023-05-14T11:01:12.445Z,38.71
2023-05-14T11:03:46.361Z,37.65
2023-05-14T11:06:13.938Z,37.41
2023-05-14T11:08:41.022Z,37.08
2023-05-14T11:11:08.988Z,33.16
2023-05-14T11:13:35.586Z,31.08
2023-05-14T11:16:21.110Z,31.80
2023-05-14T11:18:53.517Z,32.44
2023-05-14T11:21:20.272Z,30.69
2023-05-14T11:23:46.928Z,27.84
2023-05-14T11:26:13.702Z,26.49
2023-05-14T11:28:40.464Z,23.42
2023-05-14T11:31:07.154Z,24.19
2023-05-14T11:33:33.810Z,22.53
2023-05-14T11:36:00.408Z,22.59
2023-05-14T11:38:26.965Z,21.45
2023-05-14T11:41:13.982Z,21.99
2023-05-14T11:43:41.083Z,22.59
2023-05-14T11:46:07.697Z,23.61
2023-05-14T11:48:34.870Z,24.01
2023-05-14T11:51:01.400Z,23.34
2023-05-14T11:53:29.411Z,23.10
2023-05-14T11:55:57.901Z,25.30
2023-05-14T11:58:25.110Z,25.73
2023-05-14T12:00:51.914Z,26.22
2023-05-14T12:03:27.679Z,25.03
2023-05-14T12:05:58.405Z,24.08
2023-05-14T12:08:31.739Z,24.51
2023-05-14T12:10:59.157Z,23.80
2023-05-14T12:13:27.408Z,23.77
2023-05-14T12:15:55.481Z,23.64
2023-05-14T12:18:25.929Z,24.30
2023-05-14T12:20:52.827Z,26.95
2023-05-14T12:23:26.911Z,26.68
2023-05-14T12:25:53.542Z,28.45
2023-05-14T12:28:22.923Z,28.53
2023-05-14T12:30:56.590Z,30.42
2023-05-14T12:33:26.646Z,30.07
2023-05-14T12:36:10.019Z,30.11
2023-05-14T12:38:41.365Z,29.54
2023-05-14T12:41:07.948Z,31.42
2023-05-14T12:43:34.497Z,31.87
2023-05-14T12:46:01.078Z,32.95
2023-05-14T12:48:27.917Z,32.97
2023-05-14T12:50:54.592Z,32.99
2023-05-14T12:53:21.304Z,32.24
2023-05-14T12:55:50.982Z,33.48
2023-05-14T12:58:17.620Z,35.28
2023-05-14T13:00:44.304Z,34.55
2023-05-14T13:03:14.330Z,35.44
2023-05-14T13:05:40.988Z,35.68
2023-05-14T13:08:07.643Z,35.19
2023-05-14T13:10:34.244Z,35.01
2023-05-14T13:13:02.123Z,36.38
2023-05-14T13:15:35.997Z,36.03
2023-05-14T13:18:02.683Z,36.21
2023-05-14T13:20:31.052Z,35.17
2023-05-14T13:23:00.754Z,36.54
2023-05-14T13:25:27.744Z,35.89
2023-05-14T13:27:54.365Z,35.60
2023-05-14T13:30:21.068Z,36.61
2023-05-14T13:32:47.753Z,36.57
2023-05-14T13:35:14.490Z,35.54
2023-05-14T13:37:43.361Z,35.59
2023-05-14T13:40:10.391Z,34.92
2023-05-14T13:42:37.527Z,34.48
2023-05-14T13:45:04.243Z,33.80
2023-05-14T13:47:31.300Z,34.53
2023-05-14T13:49:58.324Z,34.81
2023-05-14T13:52:25.033Z,34.90
2023-05-14T13:54:51.590Z,35.57
2023-05-14T13:57:18.195Z,34.74
2023-05-14T13:59:46.071Z,35.09
2023-05-14T14:02:15.841Z,34.77
2023-05-14T14:04:42.475Z,32.60
2023-05-14T14:07:09.193Z,33.86
2023-05-14T14:09:36.957Z,32.45
2023-05-14T14:12:04.279Z,32.60
2023-05-14T14:14:31.187Z,30.81
2023-05-14T14:17:00.135Z,31.84
2023-05-14T14:19:27.223Z,33.22
2023-05-14T14:21:53.893Z,33.28
2023-05-14T14:24:20.587Z,32.40
2023-05-14T14:26:47.199Z,33.16
2023-05-14T14:29:13.757Z,33.48
2023-05-14T14:31:46.496Z,32.59
2023-05-14T14:34:13.095Z,33.21
2023-05-14T14:36:39.624Z,32.53
2023-05-14T14:39:06.241Z,33.77
2023-05-14T14:41:32.855Z,32.50
2023-05-14T14:44:03.086Z,32.25
2023-05-14T14:46:33.218Z,31.82
2023-05-14T14:49:00.243Z,32.25
2023-05-14T14:51:27.238Z,32.11
2023-05-14T14:53:53.928Z,32.46
2023-05-14T14:56:21.074Z,30.91
2023-05-14T14:58:47.729Z,30.31
2023-05-14T15:01:14.405Z,31.03
2023-05-14T15:03:41.191Z,30.16
2023-05-14T15:06:07.929Z,29.71
2023-05-14T15:08:37.830Z,29.62
2023-05-14T15:11:06.250Z,30.68
2023-05-14T15:13:32.778Z,31.94
2023-05-14T15:16:02.514Z,30.52
2023-05-14T15:18:29.080Z,30.25
2023-05-14T15:20:55.870Z,29.96
2023-05-14T15:23:22.490Z,28.02
2023-05-14T15:25:49.972Z,30.93
2023-05-14T15:28:16.722Z,29.59
2023-05-14T15:30:43.424Z,31.83
2023-05-14T15:33:10.453Z,32.22
2023-05-14T15:35:37.083Z,32.47
2023-05-14T15:38:03.646Z,32.70
2023-05-14T15:40:30.416Z,32.54
2023-05-14T15:42:56.997Z,33.17
2023-05-14T15:45:23.626Z,32.87
2023-05-14T15:47:50.198Z,32.08
2023-05-14T15:50:16.829Z,31.91
2023-05-14T15:52:43.464Z,32.81
2023-05-14T15:55:10.335Z,31.53
2023-05-14T15:57:39.903Z,31.11
2023-05-14T16:00:11.320Z,30.87
2023-05-14T16:02:39.218Z,31.40
2023-05-14T16:05:06.844Z,31.55
2023-05-14T16:07:33.550Z,31.80
2023-05-14T16:10:00.135Z,32.19
2023-05-14T16:12:26.766Z,32.56
2023-05-14T16:14:54.041Z,31.19
2023-05-14T16:17:20.868Z,31.36
2023-05-14T16:19:49.457Z,31.70
2023-05-14T16:22:16.250Z,31.57
2023-05-14T16:24:45.381Z,30.34
2023-05-14T16:27:12.069Z,30.71
2023-05-14T16:29:41.531Z,30.96
2023-05-14T16:32:08.193Z,30.90
2023-05-14T16:34:34.860Z,30.80
2023-05-14T16:37:01.605Z,31.09
2023-05-14T16:39:28.286Z,31.43
2023-05-14T16:41:54.925Z,31.45
2023-05-14T16:44:21.475Z,31.72
2023-05-14T16:46:48.537Z,32.20
2023-05-14T16:49:17.255Z,31.54
2023-05-14T16:51:44.016Z,32.06
2023-05-14T16:54:10.664Z,31.72
2023-05-14T16:56:38.070Z,31.89
2023-05-14T16:59:04.752Z,31.97
2023-05-14T17:01:31.880Z,32.66
2023-05-14T17:03:58.603Z,32.63
2023-05-14T17:06:25.276Z,32.51
2023-05-14T17:08:51.935Z,32.20
2023-05-14T17:11:18.523Z,32.22
2023-05-14T17:13:45.245Z,31.91
2023-05-14T17:16:13.991Z,32.66
2023-05-14T17:18:40.856Z,33.05
2023-05-14T17:21:07.716Z,31.59
2023-05-14T17:23:34.352Z,31.75
2023-05-14T17:26:00.934Z,32.90
2023-05-14T17:28:28.533Z,33.02
2023-05-14T17:30:55.353Z,33.58
2023-05-14T17:33:22.047Z,33.37
2023-05-14T17:35:51.009Z,34.45
2023-05-14T17:38:17.661Z,35.12
2023-05-14T17:40:44.276Z,35.03
2023-05-14T17:43:13.258Z,34.40
2023-05-14T17:45:53.105Z,35.00
2023-05-14T17:48:21.645Z,35.15
2023-05-14T17:50:48.250Z,35.49
2023-05-14T17:53:14.846Z,36.47
2023-05-14T17:55:50.951Z,36.53
2023-05-14T17:58:17.606Z,36.36
2023-05-14T18:00:44.267Z,36.84
2023-05-14T18:03:11.605Z,37.40
2023-05-14T18:05:38.537Z,37.93
2023-05-14T18:08:05.373Z,37.57
2023-05-14T18:10:31.942Z,38.08
2023-05-14T18:12:58.831Z,38.32
2023-05-14T18:15:27.321Z,37.87
2023-05-14T18:17:54.114Z,37.88
2023-05-14T18:20:20.736Z,37.67
2023-05-14T18:22:47.573Z,38.26
2023-05-14T18:25:14.207Z,38.07
2023-05-14T18:27:45.324Z,38.47
2023-05-14T18:30:13.292Z,37.64
2023-05-14T18:32:40.333Z,37.83
2023-05-14T18:35:08.203Z,38.81
2023-05-14T18:37:35.356Z,38.14
2023-05-14T18:40:05.156Z,38.96
2023-05-14T18:42:31.780Z,40.45
2023-05-14T18:44:58.403Z,40.22
2023-05-14T18:47:25.304Z,40.55
2023-05-14T18:49:55.241Z,40.56
2023-05-14T18:52:23.027Z,41.65
2023-05-14T18:54:50.701Z,42.43
2023-05-14T18:57:17.396Z,42.38
2023-05-14T18:59:43.963Z,43.61
2023-05-14T19:02:10.999Z,44.39
2023-05-14T19:04:50.706Z,45.72
2023-05-14T19:07:32.281Z,45.43
2023-05-14T19:10:01.700Z,45.90
2023-05-14T19:12:28.360Z,46.28
2023-05-14T19:14:55.773Z,46.44
2023-05-14T19:17:25.546Z,45.42
2023-05-14T19:19:52.186Z,45.80
2023-05-14T19:22:21.996Z,46.68
2023-05-14T19:27:21.064Z,47.43
2023-05-14T19:29:47.657Z,47.80
2023-05-14T19:32:14.306Z,48.55
2023-05-14T19:34:41.064Z,49.30
2023-05-14T19:37:07.870Z,49.06
2023-05-14T19:39:34.457Z,47.42
2023-05-14T19:42:04.104Z,47.76
2023-05-14T19:44:31.113Z,46.40
2023-05-14T19:46:57.935Z,46.82
2023-05-14T19:49:24.521Z,46.02
2023-05-14T19:51:51.103Z,46.41
2023-05-14T19:54:20.680Z,46.56
2023-05-14T19:56:48.193Z,47.21
2023-05-14T19:59:17.110Z,45.86
2023-05-14T20:01:45.998Z,46.12
2023-05-14T20:04:13.985Z,46.26
2023-05-14T20:06:41.657Z,46.94
2023-05-14T20:09:08.223Z,46.40
2023-05-14T20:11:34.819Z,47.93
2023-05-14T20:14:01.314Z,50.14
2023-05-14T20:16:28.590Z,49.65
2023-05-14T20:18:58.139Z,50.89
2023-05-14T20:21:24.800Z,50.55
2023-05-14T20:23:51.900Z,51.52
2023-05-14T20:26:18.492Z,50.04
2023-05-14T20:28:45.113Z,50.74
2023-05-14T20:31:11.752Z,52.03
2023-05-14T20:33:38.355Z,54.38
2023-05-14T20:36:05.362Z,52.97
2023-05-14T20:38:35.122Z,53.08
2023-05-14T20:41:01.907Z,54.52
2023-05-14T20:43:31.507Z,56.31
2023-05-14T20:46:06.305Z,57.19
2023-05-14T20:48:32.990Z,57.56
2023-05-14T20:50:59.622Z,57.74
2023-05-14T20:53:28.761Z,60.22
2023-05-14T20:55:55.962Z,59.66
2023-05-14T20:58:22.630Z,59.28
2023-05-14T21:00:49.250Z,60.27
2023-05-14T21:03:15.959Z,59.47
2023-05-14T21:05:43.787Z,59.02
2023-05-14T21:08:10.895Z,57.84
2023-05-14T21:10:37.465Z,56.51
2023-05-14T21:13:15.521Z,55.33
2023-05-14T21:15:42.461Z,56.09
2023-05-14T21:18:16.473Z,55.73
2023-05-14T21:20:43.043Z,56.16
2023-05-14T21:23:09.603Z,59.58
2023-05-14T21:25:36.364Z,59.78
2023-05-14T21:28:02.952Z,60.68
2023-05-14T21:30:29.750Z,59.98
2023-05-14T21:32:56.449Z,60.30
2023-05-14T21:35:23.472Z,60.76
2023-05-14T21:37:50.288Z,60.92
2023-05-14T21:40:16.867Z,60.62
2023-05-14T21:42:43.565Z,59.28
2023-05-14T21:45:10.482Z,60.03
2023-05-14T21:47:37.201Z,59.85
2023-05-14T21:50:07.052Z,61.20
2023-05-14T21:52:33.663Z,60.78
2023-05-14T21:55:00.211Z,61.59
2023-05-14T21:57:28.373Z,62.10
2023-05-14T21:59:55.451Z,60.70
2023-05-14T22:04:48.639Z,62.46
2023-05-14T22:07:15.282Z,61.21
2023-05-14T22:09:41.841Z,61.11
2023-05-14T22:12:08.548Z,61.02
2023-05-14T22:14:35.103Z,61.56
2023-05-14T22:17:01.772Z,62.05
2023-05-14T22:19:28.547Z,61.04
2023-05-14T22:21:55.161Z,61.47
2023-05-14T22:24:21.676Z,63.58
2023-05-14T22:26:53.407Z,63.32
2023-05-14T22:29:20.114Z,62.91
2023-05-14T22:31:46.759Z,61.95
2023-05-14T22:34:16.029Z,60.52
2023-05-14T22:36:42.633Z,60.04
2023-05-14T22:39:11.196Z,60.74
2023-05-14T22:41:38.662Z,63.10
2023-05-14T22:44:07.488Z,62.74
2023-05-14T22:46:34.089Z,61.62
2023-05-14T22:49:06.310Z,61.55
2023-05-14T22:51:33.114Z,62.00
2023-05-14T22:53:59.633Z,61.64
2023-05-14T22:56:26.242Z,61.17
2023-05-14T22:58:52.754Z,61.04
2023-05-14T23:01:19.381Z,62.96
2023-05-14T23:03:45.995Z,63.98
2023-05-14T23:06:14.485Z,65.17
2023-05-14T23:08:41.016Z,63.36
2023-05-14T23:11:07.709Z,62.47
2023-05-14T23:13:41.592Z,61.71
2023-05-14T23:16:08.392Z,61.08
2023-05-14T23:18:35.095Z,62.73
2023-05-14T23:21:01.965Z,64.88
2023-05-14T23:23:28.546Z,64.37
2023-05-14T23:25:56.133Z,62.90
2023-05-14T23:28:22.719Z,62.59
2023-05-14T23:30:49.425Z,62.45
2023-05-14T23:33:15.943Z,63.17
2023-05-14T23:35:42.524Z,66.30
2023-05-14T23:38:09.152Z,66.31
2023-05-14T23:40:35.877Z,67.01
2023-05-14T23:43:02.514Z,69.26
2023-05-14T23:45:29.456Z,68.60
2023-05-14T23:47:58.478Z,67.12
2023-05-14T23:50:25.658Z,66.40
2023-05-14T23:52:52.751Z,65.11
2023-05-14T23:55:19.492Z,65.76
2023-05-14T23:57:46.080Z,63.58
